createdAt,value
2023-01-10T00:01:27.001Z,2.60
2023-01-10T00:05:55.540Z,2.60
2023-01-10T00:09:58.864Z,2.60
2023-01-10T00:14:03.619Z,2.50
2023-01-10T00:18:33.277Z,2.50
2023-01-10T00:22:36.607Z,2.50
2023-01-10T00:27:05.612Z,2.50
2023-01-10T00:31:12.160Z,2.50
2023-01-10T00:35:15.672Z,2.50
2023-01-10T00:39:20.568Z,2.50
2023-01-10T00:43:44.073Z,2.40
2023-01-10T00:47:55.184Z,2.40
2023-01-10T00:51:59.901Z,2.40
2023-01-10T00:56:03.408Z,2.50
2023-01-10T01:00:34.367Z,2.40
2023-01-10T01:04:39.072Z,2.40
2023-01-10T01:08:45.973Z,2.40
2023-01-10T01:12:49.287Z,2.40
2023-01-10T01:16:52.601Z,2.30
2023-01-10T01:21:28.250Z,2.30
2023-01-10T01:25:32.939Z,2.30
2023-01-10T01:29:43.050Z,2.40
2023-01-10T01:33:49.106Z,2.30
2023-01-10T01:37:54.060Z,2.30
2023-01-10T01:42:00.543Z,2.30
2023-01-10T01:46:13.408Z,2.30
2023-01-10T01:50:19.459Z,2.30
2023-01-10T01:54:29.741Z,2.30
2023-01-10T01:58:42.129Z,2.30
2023-01-10T02:03:01.779Z,2.30
2023-01-10T02:07:09.089Z,2.30
2023-01-10T02:11:14.104Z,2.30
2023-01-10T02:15:18.932Z,2.30
2023-01-10T02:19:45.306Z,2.20
2023-01-10T02:24:32.223Z,2.20
2023-01-10T02:29:11.689Z,2.20
2023-01-10T02:33:31.721Z,2.20
2023-01-10T02:38:00.253Z,2.20
2023-01-10T02:42:08.486Z,2.20
2023-01-10T02:46:17.281Z,2.20
2023-01-10T02:50:37.580Z,2.30
2023-01-10T02:55:07.023Z,2.30
2023-01-10T02:59:43.276Z,2.20
2023-01-10T03:04:10.827Z,2.20
2023-01-10T03:08:33.089Z,2.20
2023-01-10T03:12:43.203Z,2.30
2023-01-10T03:16:51.322Z,2.20
2023-01-10T03:21:14.357Z,2.30
2023-01-10T03:29:45.751Z,2.20
2023-01-10T03:33:54.744Z,2.20
2023-01-10T03:38:11.408Z,2.20
2023-01-10T03:42:23.526Z,2.30
2023-01-10T03:46:40.936Z,2.20
2023-01-10T03:50:44.988Z,2.20
2023-01-10T03:54:48.944Z,2.20
2023-01-10T03:59:20.554Z,2.20
2023-01-10T04:03:24.033Z,2.20
2023-01-10T04:07:52.111Z,2.10
2023-01-10T04:11:55.453Z,2.10
2023-01-10T04:16:04.057Z,2.10
2023-01-10T04:20:08.070Z,2.00
2023-01-10T04:24:13.873Z,1.90
2023-01-10T04:28:17.209Z,2.00
2023-01-10T04:33:25.189Z,1.90
2023-01-10T04:37:30.026Z,1.90
2023-01-10T04:41:58.401Z,1.80
2023-01-10T04:46:01.933Z,1.80
2023-01-10T04:50:05.749Z,1.80
2023-01-10T04:54:13.308Z,1.90
2023-01-10T04:58:43.261Z,1.90
2023-01-10T05:02:46.946Z,1.90
2023-01-10T05:07:40.904Z,1.90
2023-01-10T05:11:45.692Z,1.90
2023-01-10T05:15:55.345Z,1.90
2023-01-10T05:19:59.035Z,1.90
2023-01-10T05:24:06.009Z,2.00
2023-01-10T05:28:10.772Z,1.90
2023-01-10T05:32:14.144Z,1.90
2023-01-10T05:36:36.152Z,2.00
2023-01-10T05:40:39.354Z,1.90
2023-01-10T05:44:44.427Z,2.00
2023-01-10T05:48:47.970Z,2.00
2023-01-10T05:52:51.484Z,2.00
2023-01-10T05:56:58.732Z,2.00
2023-01-10T06:01:03.475Z,2.00
2023-01-10T06:05:11.690Z,2.00
2023-01-10T06:09:15.013Z,2.00
2023-01-10T06:14:13.107Z,2.00
2023-01-10T06:18:17.897Z,2.00
2023-01-10T06:22:23.489Z,2.00
2023-01-10T06:26:26.904Z,2.00
2023-01-10T06:30:58.520Z,2.00
2023-01-10T06:35:03.426Z,2.00
2023-01-10T06:39:34.474Z,2.00
2023-01-10T06:43:37.979Z,2.00
2023-01-10T06:47:43.774Z,2.00
2023-01-10T06:51:48.675Z,2.00
2023-01-10T06:55:51.966Z,2.00
2023-01-10T07:00:10.583Z,1.90
2023-01-10T07:04:13.937Z,1.80
2023-01-10T07:08:29.149Z,1.80
2023-01-10T07:12:32.508Z,1.80
2023-01-10T07:16:39.213Z,1.80
2023-01-10T07:20:42.524Z,1.80
2023-01-10T07:24:54.723Z,1.80
2023-01-10T07:28:59.011Z,1.80
2023-01-10T07:33:04.081Z,1.80
2023-01-10T07:37:07.570Z,1.80
2023-01-10T07:41:21.986Z,1.80
2023-01-10T07:45:27.188Z,1.80
2023-01-10T07:49:43.008Z,1.90
2023-01-10T07:53:53.682Z,1.90
2023-01-10T07:58:01.916Z,2.00
2023-01-10T08:02:05.307Z,2.00
2023-01-10T08:06:16.686Z,1.90
2023-01-10T08:10:20.422Z,2.00
2023-01-10T08:14:27.375Z,2.00
2023-01-10T08:18:30.612Z,2.10
2023-01-10T08:22:40.493Z,2.10
2023-01-10T08:26:43.742Z,2.10
2023-01-10T08:30:50.390Z,2.10
2023-01-10T08:34:54.121Z,2.20
2023-01-10T08:38:57.416Z,2.10
2023-01-10T08:43:01.137Z,2.20
2023-01-10T08:47:05.851Z,2.20
2023-01-10T08:51:10.904Z,2.30
2023-01-10T08:55:17.977Z,2.20
2023-01-10T09:00:12.419Z,2.30
2023-01-10T09:04:20.063Z,2.30
2023-01-10T09:08:27.113Z,2.40
2023-01-10T09:12:51.564Z,2.40
2023-01-10T09:16:54.930Z,2.40
2023-01-10T09:21:07.380Z,2.50
2023-01-10T09:25:11.436Z,2.50
2023-01-10T09:29:16.303Z,2.50
2023-01-10T09:33:20.669Z,2.60
2023-01-10T09:37:33.848Z,2.60
2023-01-10T09:42:09.013Z,2.70
2023-01-10T09:46:20.921Z,2.70
2023-01-10T09:50:36.594Z,2.80
2023-01-10T10:00:26.784Z,2.80
2023-01-10T10:04:47.026Z,3.00
2023-01-10T10:09:00.626Z,3.00
2023-01-10T10:13:26.793Z,3.00
2023-01-10T10:17:48.601Z,3.00
2023-01-10T10:21:57.594Z,3.10
2023-01-10T10:26:10.020Z,3.10
2023-01-10T10:30:35.344Z,3.00
2023-01-10T10:34:46.814Z,3.00
2023-01-10T10:38:52.832Z,3.00
2023-01-10T10:43:18.962Z,3.00
2023-01-10T10:47:25.305Z,2.90
2023-01-10T10:51:39.022Z,2.80
2023-01-10T10:55:43.697Z,2.90
2023-01-10T10:59:49.927Z,2.90
2023-01-10T11:03:56.157Z,3.00
2023-01-10T11:08:05.139Z,3.10
2023-01-10T11:12:17.003Z,3.00
2023-01-10T11:16:29.857Z,3.20
2023-01-10T11:20:36.825Z,3.20
2023-01-10T11:24:53.301Z,3.20
2023-01-10T11:29:08.296Z,3.10
2023-01-10T11:33:32.918Z,3.20
2023-01-10T11:37:37.865Z,3.30
2023-01-10T11:41:42.793Z,3.40
2023-01-10T11:45:46.301Z,3.40
2023-01-10T11:49:51.374Z,3.30
2023-01-10T11:54:00.369Z,3.40
2023-01-10T12:02:32.896Z,3.40
2023-01-10T12:06:48.084Z,3.40
2023-01-10T12:10:59.705Z,3.40
2023-01-10T12:15:26.878Z,3.50
2023-01-10T12:19:30.803Z,3.80
2023-01-10T12:23:41.482Z,3.60
2023-01-10T12:27:49.030Z,3.70
2023-01-10T12:31:57.053Z,3.50
2023-01-10T12:36:12.658Z,3.50
2023-01-10T12:40:20.556Z,3.60
2023-01-10T12:44:27.844Z,3.60
2023-01-10T12:48:45.238Z,3.60
2023-01-10T12:53:00.176Z,3.50
2023-01-10T12:57:15.129Z,3.40
2023-01-10T13:01:21.600Z,3.40
2023-01-10T13:05:29.472Z,3.40
2023-01-10T13:09:33.156Z,3.40
2023-01-10T13:13:48.572Z,3.40
2023-01-10T13:17:57.824Z,3.50
2023-01-10T13:22:22.987Z,3.50
2023-01-10T13:26:26.561Z,3.40
2023-01-10T13:30:40.898Z,3.30
2023-01-10T13:34:44.365Z,3.30
2023-01-10T13:38:53.076Z,3.20
2023-01-10T13:43:34.915Z,3.20
2023-01-10T13:48:16.334Z,3.10
2023-01-10T13:52:37.848Z,3.00
2023-01-10T13:56:48.733Z,3.00
2023-01-10T14:01:10.838Z,2.90
2023-01-10T14:05:18.758Z,3.00
2023-01-10T14:09:44.874Z,3.10
2023-01-10T14:13:53.121Z,3.10
2023-01-10T14:18:03.098Z,3.00
2023-01-10T14:22:06.948Z,3.00
2023-01-10T14:26:39.101Z,3.00
2023-01-10T14:30:44.162Z,3.00
2023-01-10T14:34:49.934Z,3.00
2023-01-10T14:38:58.291Z,2.90
2023-01-10T14:43:05.455Z,2.80
2023-01-10T14:47:28.207Z,2.80
2023-01-10T14:51:32.395Z,2.70
2023-01-10T14:55:35.764Z,2.70
2023-01-10T14:59:41.316Z,2.70
2023-01-10T15:03:48.351Z,2.70
2023-01-10T15:07:53.026Z,2.70
2023-01-10T15:12:00.621Z,2.60
2023-01-10T15:16:08.115Z,2.60
2023-01-10T15:20:18.036Z,2.60
2023-01-10T15:24:36.964Z,2.60
2023-01-10T15:28:40.402Z,2.60
2023-01-10T15:32:45.539Z,2.60
2023-01-10T15:36:52.641Z,2.50
2023-01-10T15:40:58.790Z,2.50
2023-01-10T15:45:19.208Z,2.50
2023-01-10T15:49:25.477Z,2.40
2023-01-10T15:54:06.362Z,2.40
2023-01-10T15:58:44.780Z,2.40
2023-01-10T16:02:48.355Z,2.50
2023-01-10T16:06:55.354Z,2.40
2023-01-10T16:11:00.147Z,2.30
2023-01-10T16:15:54.779Z,2.40
2023-01-10T16:19:59.522Z,2.40
2023-01-10T16:24:06.609Z,2.20
2023-01-10T16:28:12.499Z,2.20
2023-01-10T16:32:16.299Z,2.20
2023-01-10T16:36:27.272Z,2.10
2023-01-10T16:40:36.652Z,2.10
2023-01-10T16:44:41.739Z,2.00
2023-01-10T16:48:47.658Z,2.00
2023-01-10T16:52:52.494Z,2.00
2023-01-10T16:56:57.602Z,2.00
2023-01-10T17:01:01.159Z,1.90
2023-01-10T17:05:04.768Z,1.90
2023-01-10T17:09:12.038Z,1.90
2023-01-10T17:13:18.829Z,1.80
2023-01-10T17:17:22.464Z,1.80
2023-01-10T17:21:27.043Z,1.80
2023-01-10T17:25:40.010Z,1.70
2023-01-10T17:29:43.714Z,1.70
2023-01-10T17:33:51.315Z,1.60
2023-01-10T17:37:54.721Z,1.50
2023-01-10T17:42:19.397Z,1.40
2023-01-10T17:46:22.974Z,1.30
2023-01-10T17:50:28.526Z,1.30
2023-01-10T17:54:32.039Z,1.20
2023-01-10T17:58:36.739Z,1.20
2023-01-10T18:02:42.257Z,1.20
2023-01-10T18:06:46.003Z,1.30
2023-01-10T18:10:50.446Z,1.30
2023-01-10T18:14:55.387Z,1.40
2023-01-10T18:18:58.856Z,1.40
2023-01-10T18:23:23.032Z,1.40
2023-01-10T18:27:28.115Z,1.40
2023-01-10T18:31:53.660Z,1.50
2023-01-10T18:35:58.738Z,1.50
2023-01-10T18:40:04.554Z,1.40
2023-01-10T18:44:09.225Z,1.40
2023-01-10T18:48:26.637Z,1.40
2023-01-10T18:52:32.986Z,1.30
2023-01-10T18:56:37.030Z,1.30
2023-01-10T19:00:43.763Z,1.20
2023-01-10T19:05:11.513Z,1.20
2023-01-10T19:09:15.232Z,1.20
2023-01-10T19:13:44.664Z,1.20
2023-01-10T19:17:52.535Z,1.30
2023-01-10T19:22:25.901Z,1.30
2023-01-10T19:26:31.666Z,1.30
2023-01-10T19:31:04.529Z,1.30
2023-01-10T19:35:22.588Z,1.40
2023-01-10T19:40:32.982Z,1.40
2023-01-10T19:49:21.704Z,1.40
2023-01-10T19:53:27.424Z,1.40
2023-01-10T19:57:31.783Z,1.40
2023-01-10T20:01:41.786Z,1.40
2023-01-10T20:05:46.619Z,1.40
2023-01-10T20:09:50.207Z,1.40
2023-01-10T20:13:54.165Z,1.40
2023-01-10T20:18:00.836Z,1.30
2023-01-10T20:22:05.572Z,1.30
2023-01-10T20:26:30.618Z,1.20
2023-01-10T20:30:33.917Z,1.20
2023-01-10T20:34:44.787Z,1.10
2023-01-10T20:38:50.031Z,1.00
2023-01-10T20:43:14.855Z,0.90
2023-01-10T20:47:23.492Z,0.80
2023-01-10T20:51:28.421Z,0.70
2023-01-10T20:55:37.595Z,0.60
2023-01-10T20:59:41.033Z,0.60
2023-01-10T21:03:52.350Z,0.50
2023-01-10T21:07:57.445Z,0.50
2023-01-10T21:12:21.490Z,0.40
2023-01-10T21:16:26.550Z,0.50
2023-01-10T21:20:33.313Z,0.50
2023-01-10T21:24:37.361Z,0.60
2023-01-10T21:29:31.906Z,0.60
2023-01-10T21:33:37.084Z,0.70
2023-01-10T21:37:40.393Z,0.60
2023-01-10T21:42:04.498Z,0.60
2023-01-10T21:46:22.175Z,0.60
2023-01-10T21:50:33.114Z,0.50
2023-01-10T21:54:36.860Z,0.50
2023-01-10T21:58:44.705Z,0.50
2023-01-10T22:02:48.491Z,0.60
2023-01-10T22:06:53.804Z,0.70
2023-01-10T22:10:57.398Z,0.70
2023-01-10T22:15:03.482Z,0.60
2023-01-10T22:19:07.085Z,0.60
2023-01-10T22:23:31.493Z,0.60
2023-01-10T22:27:35.208Z,0.60
2023-01-10T22:31:51.100Z,0.60
2023-01-10T22:35:54.851Z,0.60
2023-01-10T22:39:59.972Z,0.60
2023-01-10T22:44:05.690Z,0.60
2023-01-10T22:48:10.043Z,0.60
2023-01-10T22:52:13.951Z,0.60
2023-01-10T22:56:19.426Z,0.70
2023-01-10T23:00:23.494Z,0.70
2023-01-10T23:04:26.991Z,0.60
2023-01-10T23:08:34.960Z,0.40
2023-01-10T23:12:40.256Z,0.30
2023-01-10T23:16:44.802Z,0.30
2023-01-10T23:20:49.700Z,0.10
2023-01-10T23:24:57.451Z,0.00
2023-01-10T23:29:02.478Z,0.00
2023-01-10T23:33:07.132Z,-0.10
2023-01-10T23:37:10.719Z,-0.20
2023-01-10T23:41:14.593Z,-0.20
2023-01-10T23:45:19.582Z,-0.30
2023-01-10T23:49:23.094Z,-0.30
2023-01-10T23:53:26.932Z,-0.30
2023-01-10T23:57:30.535Z,-0.40
